West Bridgford, United Kingdom
Current Conditions -  °F | °C
As of 7:50 PM on Friday 26 Dec 2014 (Local Time) from EGNX Reporting Station
Moderate Snow Moderate Snow  
Wind Chill: 22°   Ceiling: 200
Heat Index: 32°   Visibility: 0.31mi
Dew Point: 32°   Wind: 15mph
Humidity: 100%   Direction: 90°E
Pressure: 29.74"   Gusts: NA
Location:  52.93°N, 1.13°W
Report Text: EGNX 261950Z 09013KT 0500 SN OVC002 00/00 Q1007
Loading
Personal Weather Stations






























Interactive Weather Map New forecast layout! Learn more

10-Day Weather Forecast

Advertisements
Track Severe Weather on mobile